Time;durP1;ratioP1;P1;durP2;ratioP2;P2;SDS_P1;SDS_P2;PMS_P1;PMS_P2;Temp;Humidity;BMP_temperature;BMP_pressure;BME280_temperature;BME280_humidity;BME280_pressure;Samples;Min_cycle;Max_cycle;Signal;HPM_P1;HPM_P2
2022/10/21 00:01:09;;;;;;;43.55;22.48;;;15.90;99.90;;;;;;5051862;28;20492;-73
2022/10/21 00:03:35;;;;;;;48.80;23.80;;;15.80;99.90;;;;;;5070973;28;20131;-73
2022/10/21 00:06:01;;;;;;;89.97;29.50;;;15.70;99.90;;;;;;5069461;28;20016;-73
2022/10/21 00:08:27;;;;;;;62.72;26.63;;;15.70;99.90;;;;;;5057801;28;20028;-73
2022/10/21 00:10:55;;;;;;;46.10;22.17;;;15.80;99.90;;;;;;5051820;28;20481;-73
2022/10/21 00:13:21;;;;;;;46.25;25.33;;;15.80;99.90;;;;;;5054982;28;20158;-73
2022/10/21 00:16:07;;;;;;;50.45;25.55;;;15.80;99.90;;;;;;5053080;28;20054;-73
2022/10/21 00:18:35;;;;;;;58.70;25.33;;;15.80;99.90;;;;;;5052178;28;20029;-73
2022/10/21 00:21:04;;;;;;;55.72;27.13;;;15.90;99.90;;;;;;5051762;28;20486;-73
2022/10/21 00:23:29;;;;;;;58.97;26.65;;;16.00;99.90;;;;;;5058655;28;20025;-73
2022/10/21 00:25:56;;;;;;;39.63;24.23;;;16.00;99.90;;;;;;5061988;28;20370;-73
2022/10/21 00:28:22;;;;;;;66.68;27.42;;;16.00;99.90;;;;;;5064076;28;20025;-72
2022/10/21 00:30:47;;;;;;;63.45;27.02;;;16.00;99.90;;;;;;5075658;28;20032;-73
2022/10/21 00:33:13;;;;;;;53.42;24.02;;;16.00;99.90;;;;;;5058153;28;20033;-72
2022/10/21 00:35:39;;;;;;;46.25;24.10;;;16.00;99.90;;;;;;5054829;28;20104;-73
2022/10/21 00:38:05;;;;;;;60.65;25.92;;;15.90;99.90;;;;;;5054132;28;20143;-74
2022/10/21 00:40:31;;;;;;;55.28;25.95;;;15.90;99.90;;;;;;5055008;28;20047;-75
2022/10/21 00:42:56;;;;;;;65.45;27.52;;;15.90;99.90;;;;;;5054628;28;20116;-73
2022/10/21 00:45:27;;;;;;;92.70;28.42;;;15.80;99.90;;;;;;5055684;28;20060;-72
2022/10/21 00:48:00;;;;;;;38.50;22.20;;;15.90;99.90;;;;;;5054259;28;20039;-72
2022/10/21 00:50:32;;;;;;;;;;;15.80;99.90;;;;;;5054436;28;20017;-72
2022/10/21 00:52:59;;;;;;;44.45;22.27;;;15.90;99.90;;;;;;5067050;28;20465;-72
2022/10/21 00:55:28;;;;;;;55.13;23.70;;;15.90;99.90;;;;;;5075207;28;20040;-72
2022/10/21 00:57:55;;;;;;;59.78;27.13;;;15.90;99.90;;;;;;5074727;28;20036;-73
2022/10/21 01:00:21;;;;;;;45.60;23.77;;;15.90;99.90;;;;;;5074013;28;20036;-73
2022/10/21 01:02:46;;;;;;;89.15;29.35;;;15.90;99.90;;;;;;5072928;28;20229;-72
2022/10/21 01:05:13;;;;;;;51.42;23.58;;;15.80;99.90;;;;;;5070296;28;20028;-72
2022/10/21 01:07:39;;;;;;;56.30;24.88;;;15.80;99.90;;;;;;5054478;28;20059;-72
2022/10/21 01:10:05;;;;;;;44.72;23.20;;;15.70;99.90;;;;;;5053956;28;20475;-72
2022/10/21 01:12:55;;;;;;;59.70;24.45;;;15.70;99.90;;;;;;5071561;28;20029;-72
2022/10/21 01:15:34;;;;;;;55.00;24.17;;;15.60;99.90;;;;;;5075063;28;20040;-72
2022/10/21 01:18:38;;;;;;;101.10;29.00;;;15.70;99.90;;;;;;5064424;28;20048;-72
2022/10/21 01:21:10;;;;;;;64.80;25.63;;;15.70;99.90;;;;;;5053904;28;20487;-72
2022/10/21 01:24:03;;;;;;;51.33;23.33;;;15.70;99.90;;;;;;5054172;28;20028;-72
2022/10/21 01:26:51;;;;;;;55.30;22.17;;;15.60;99.90;;;;;;5054188;28;20043;-72
2022/10/21 01:29:44;;;;;;;45.20;21.38;;;15.60;99.90;;;;;;5068645;28;20362;-73
2022/10/21 01:32:21;;;;;;;58.97;24.77;;;15.60;99.90;;;;;;5072548;28;20024;-73
2022/10/21 01:35:12;;;;;;;40.95;20.30;;;15.60;99.90;;;;;;5073328;28;20435;-73
2022/10/21 01:37:47;;;;;;;35.67;20.67;;;15.50;99.90;;;;;;5073333;28;20526;-73
2022/10/21 01:40:38;;;;;;;57.10;23.10;;;15.50;99.90;;;;;;5073410;28;20027;-73
2022/10/21 01:43:15;;;;;;;60.42;22.92;;;15.50;99.90;;;;;;5064311;28;20401;-73
2022/10/21 01:45:54;;;;;;;48.85;20.63;;;15.50;99.90;;;;;;5053231;28;20037;-73
2022/10/21 01:48:24;;;;;;;37.80;21.02;;;15.50;99.90;;;;;;5053688;28;20106;-72
2022/10/21 01:50:58;;;;;;;42.17;21.58;;;15.60;99.90;;;;;;5054163;28;20385;-73
2022/10/21 01:53:30;;;;;;;58.08;23.90;;;15.60;99.90;;;;;;5051611;28;20159;-73
2022/10/21 01:55:57;;;;;;;43.87;22.13;;;15.50;99.90;;;;;;5054094;28;20043;-72
2022/10/21 01:58:26;;;;;;;35.80;20.58;;;15.50;99.90;;;;;;5053652;28;20013;-72
2022/10/21 02:00:56;;;;;;;40.25;18.58;;;15.40;99.90;;;;;;5062431;28;20029;-73
2022/10/21 02:03:27;;;;;;;37.00;19.70;;;15.30;99.90;;;;;;5063741;28;20118;-72
2022/10/21 02:05:53;;;;;;;43.40;19.90;;;15.30;99.90;;;;;;5052846;28;20029;-72
2022/10/21 02:08:18;;;;;;;45.15;20.80;;;15.30;99.90;;;;;;5051982;28;20366;-72
2022/10/21 02:10:48;;;;;;;49.78;20.23;;;15.40;99.90;;;;;;5055951;28;20027;-73
2022/10/21 02:13:19;;;;;;;27.02;15.95;;;15.40;99.90;;;;;;5067031;28;20104;-73
2022/10/21 02:15:45;;;;;;;29.52;17.13;;;15.40;99.90;;;;;;5053580;28;20481;-72
2022/10/21 02:18:22;;;;;;;35.40;18.52;;;15.40;99.90;;;;;;5052811;28;20029;-72
2022/10/21 02:20:53;;;;;;;32.22;17.15;;;15.40;99.90;;;;;;5053523;28;20544;-72
2022/10/21 02:23:24;;;;;;;41.38;18.13;;;15.40;99.90;;;;;;5052650;28;20108;-73
2022/10/21 02:25:50;;;;;;;35.28;15.80;;;15.40;99.90;;;;;;5072306;28;20051;-72
2022/10/21 02:28:17;;;;;;;36.00;16.77;;;15.40;99.90;;;;;;5073403;28;20021;-73
2022/10/21 02:31:07;;;;;;;30.45;13.80;;;15.40;99.90;;;;;;5065956;28;20025;-72
2022/10/21 02:33:51;;;;;;;27.40;14.27;;;15.40;99.90;;;;;;5068592;28;20033;-72
2022/10/21 02:36:28;;;;;;;32.10;14.68;;;15.30;99.90;;;;;;5073342;28;20028;-72
2022/10/21 02:38:59;;;;;;;25.10;14.80;;;15.30;99.90;;;;;;5072589;28;20043;-72
2022/10/21 02:41:27;;;;;;;21.55;11.90;;;15.30;99.90;;;;;;5072939;28;20036;-73
2022/10/21 02:44:01;;;;;;;24.20;14.90;;;15.20;99.90;;;;;;5060653;28;20021;-72
2022/10/21 02:46:38;;;;;;;27.15;13.90;;;15.20;99.90;;;;;;5050802;28;20029;-73
2022/10/21 02:49:04;;;;;;;32.33;14.27;;;15.20;99.90;;;;;;5052697;28;20025;-73
2022/10/21 02:51:30;;;;;;;32.55;14.15;;;15.20;99.90;;;;;;5053483;28;20076;-73
2022/10/21 02:53:56;;;;;;;36.22;14.73;;;15.10;99.90;;;;;;5052812;28;20509;-72
2022/10/21 02:56:22;;;;;;;39.92;13.85;;;15.10;99.90;;;;;;5052981;28;20104;-72
2022/10/21 02:58:47;;;;;;;38.88;14.23;;;15.10;99.90;;;;;;5063765;28;20052;-72
2022/10/21 03:01:13;;;;;;;37.15;11.05;;;15.10;99.90;;;;;;5072618;28;20519;-72
2022/10/21 03:03:38;;;;;;;42.55;11.70;;;15.00;99.90;;;;;;5073207;28;20020;-72
2022/10/21 03:06:04;;;;;;;20.52;9.90;;;15.00;99.90;;;;;;5066471;28;20021;-72
2022/10/21 03:08:30;;;;;;;38.20;11.93;;;15.00;99.90;;;;;;5061462;28;20089;-72
2022/10/21 03:10:55;;;;;;;28.63;12.13;;;15.00;99.90;;;;;;5067106;28;20066;-72
2022/10/21 03:13:22;;;;;;;30.42;11.82;;;15.00;99.90;;;;;;5063757;28;20029;-72
2022/10/21 03:15:48;;;;;;;23.00;9.95;;;15.00;99.90;;;;;;5051281;28;20213;-72
2022/10/21 03:18:14;;;;;;;25.27;9.05;;;15.00;99.90;;;;;;5051636;28;20123;-72
2022/10/21 03:20:40;;;;;;;23.42;8.68;;;15.00;99.90;;;;;;5061540;28;20163;-73
2022/10/21 03:23:05;;;;;;;26.92;9.13;;;14.90;99.90;;;;;;5063846;28;20040;-72
2022/10/21 03:25:31;;;;;;;18.85;9.48;;;14.90;99.90;;;;;;5060933;28;20046;-73
2022/10/21 03:27:57;;;;;;;30.95;9.40;;;14.90;99.90;;;;;;5071747;28;20028;-72
2022/10/21 03:30:22;;;;;;;22.92;8.88;;;14.80;99.90;;;;;;5071373;28;20461;-72
2022/10/21 03:32:48;;;;;;;20.75;8.70;;;14.70;99.90;;;;;;5071929;28;20111;-72
2022/10/21 03:35:14;;;;;;;25.70;9.27;;;14.70;99.90;;;;;;5070771;28;20037;-72
2022/10/21 03:37:39;;;;;;;19.08;9.27;;;14.70;99.90;;;;;;5072452;28;20052;-72
2022/10/21 03:40:05;;;;;;;23.73;9.25;;;14.80;99.90;;;;;;5071009;28;20031;-72
2022/10/21 03:42:31;;;;;;;24.70;8.95;;;14.80;99.90;;;;;;5070541;28;20536;-72
2022/10/21 03:44:57;;;;;;;27.27;9.30;;;14.70;99.90;;;;;;5051379;28;20108;-72
2022/10/21 03:47:22;;;;;;;28.23;8.85;;;14.70;99.90;;;;;;5053301;28;20104;-72
2022/10/21 03:49:48;;;;;;;27.55;9.20;;;14.70;99.90;;;;;;5070831;28;20461;-72
2022/10/21 03:52:13;;;;;;;14.10;7.82;;;14.70;99.90;;;;;;5071938;28;20028;-73
2022/10/21 03:54:39;;;;;;;19.33;7.63;;;14.70;99.90;;;;;;5071037;28;20045;-72
2022/10/21 03:57:04;;;;;;;20.48;7.70;;;14.70;99.90;;;;;;5073438;28;20030;-72
2022/10/21 03:59:30;;;;;;;27.85;8.48;;;14.70;99.90;;;;;;5056182;28;20029;-73
2022/10/21 04:01:56;;;;;;;23.33;7.05;;;14.60;99.90;;;;;;5056007;28;20354;-73
2022/10/21 04:04:21;;;;;;;22.48;7.15;;;14.50;99.90;;;;;;5062638;28;20029;-72
2022/10/21 04:06:47;;;;;;;25.25;8.40;;;14.60;99.90;;;;;;5074511;28;20031;-73
2022/10/21 04:09:12;;;;;;;22.35;6.72;;;14.60;99.90;;;;;;5074612;28;20028;-72
2022/10/21 04:11:38;;;;;;;19.45;6.82;;;14.60;99.90;;;;;;5073722;28;20040;-72
2022/10/21 04:14:04;;;;;;;17.20;7.38;;;14.60;99.90;;;;;;5062041;28;20040;-72
2022/10/21 04:16:29;;;;;;;18.05;6.30;;;14.60;99.90;;;;;;5055001;28;20116;-72
2022/10/21 04:18:55;;;;;;;16.08;5.93;;;14.70;99.90;;;;;;5055834;28;20041;-73
2022/10/21 04:21:20;;;;;;;18.65;5.22;;;14.60;99.90;;;;;;5056117;28;20488;-72
2022/10/21 04:23:46;;;;;;;17.33;6.18;;;14.60;99.90;;;;;;5059681;28;20385;-74
2022/10/21 04:26:12;;;;;;;16.02;5.05;;;14.60;99.90;;;;;;5075543;28;20107;-72
2022/10/21 04:28:37;;;;;;;10.73;5.00;;;14.60;99.90;;;;;;5075422;28;20027;-72
2022/10/21 04:31:03;;;;;;;19.88;6.50;;;14.50;99.90;;;;;;5075348;28;20112;-72
2022/10/21 04:33:29;;;;;;;20.25;6.30;;;14.60;99.90;;;;;;5075376;28;20436;-72
2022/10/21 04:35:55;;;;;;;14.20;5.65;;;14.60;99.90;;;;;;5074838;28;20079;-72
2022/10/21 04:38:22;;;;;;;14.60;5.72;;;14.60;99.90;;;;;;5074795;28;20028;-72
2022/10/21 04:40:53;;;;;;;20.33;5.30;;;14.60;99.90;;;;;;5075486;28;20042;-73
2022/10/21 04:43:19;;;;;;;25.70;6.03;;;14.60;99.90;;;;;;5072198;28;20511;-72
2022/10/21 04:45:45;;;;;;;24.65;5.30;;;14.70;99.90;;;;;;5075643;28;20029;-72
2022/10/21 04:48:12;;;;;;;26.00;6.28;;;14.60;99.90;;;;;;5075107;28;20067;-72
2022/10/21 04:50:38;;;;;;;19.13;6.35;;;14.70;99.90;;;;;;5075235;28;20459;-73
2022/10/21 04:53:04;;;;;;;18.42;6.40;;;14.60;99.90;;;;;;5075393;28;20030;-72
2022/10/21 04:55:29;;;;;;;22.13;7.32;;;14.60;99.90;;;;;;5075500;28;20029;-72
2022/10/21 04:57:55;;;;;;;18.13;7.45;;;14.60;99.90;;;;;;5074258;28;20066;-72
2022/10/21 05:00:20;;;;;;;16.13;6.53;;;14.50;99.90;;;;;;5055314;28;20021;-72
2022/10/21 05:02:46;;;;;;;12.52;6.53;;;14.40;99.90;;;;;;5054127;28;20155;-73
2022/10/21 05:05:11;;;;;;;24.67;7.68;;;14.50;99.90;;;;;;5055113;28;20024;-73
2022/10/21 05:07:37;;;;;;;20.45;7.10;;;14.50;99.90;;;;;;5053308;28;20417;-73
2022/10/21 05:10:03;;;;;;;18.65;6.88;;;14.50;99.90;;;;;;5053678;28;20033;-72
2022/10/21 05:12:29;;;;;;;26.05;6.60;;;14.40;99.90;;;;;;5053889;28;20025;-73
2022/10/21 05:14:54;;;;;;;30.00;7.25;;;14.40;99.90;;;;;;5068936;28;20032;-73
2022/10/21 05:17:20;;;;;;;17.95;6.70;;;14.40;99.90;;;;;;5073980;28;20511;-73
2022/10/21 05:19:45;;;;;;;15.68;6.28;;;14.40;99.90;;;;;;5074352;28;20044;-73
2022/10/21 05:22:11;;;;;;;16.90;5.45;;;14.40;99.90;;;;;;5074332;28;20532;-74
2022/10/21 05:24:37;;;;;;;14.02;6.30;;;14.50;99.90;;;;;;5074256;28;20035;-74
2022/10/21 05:27:03;;;;;;;26.98;6.18;;;14.40;99.90;;;;;;5074182;28;20381;-74
2022/10/21 05:29:28;;;;;;;12.13;5.30;;;14.40;99.90;;;;;;5074026;28;20079;-74
2022/10/21 05:31:54;;;;;;;22.52;5.82;;;14.40;99.90;;;;;;5066354;28;20048;-74
2022/10/21 05:34:19;;;;;;;16.27;4.70;;;14.40;99.90;;;;;;5055995;28;20040;-73
2022/10/21 05:36:47;;;;;;;11.70;4.28;;;14.40;99.90;;;;;;5056035;28;20025;-73
2022/10/21 05:39:13;;;;;;;10.00;4.40;;;14.40;99.90;;;;;;5053841;28;20051;-74
2022/10/21 05:41:39;;;;;;;14.82;4.75;;;14.50;99.90;;;;;;5052760;28;20025;-74
2022/10/21 05:44:04;;;;;;;13.23;4.70;;;14.50;99.90;;;;;;5064347;28;20456;-74
2022/10/21 05:46:30;;;;;;;20.38;5.38;;;14.50;99.90;;;;;;5054113;28;20068;-73
2022/10/21 05:48:55;;;;;;;14.35;4.78;;;14.40;99.90;;;;;;5054177;28;20035;-74
2022/10/21 05:51:25;;;;;;;16.08;5.43;;;14.40;99.90;;;;;;5056553;28;20567;-74
2022/10/21 05:53:55;;;;;;;16.42;5.80;;;14.50;99.90;;;;;;5063105;28;20111;-75
2022/10/21 05:56:21;;;;;;;15.25;5.57;;;14.40;99.90;;;;;;5064810;28;20048;-73
2022/10/21 05:58:46;;;;;;;16.00;5.63;;;14.50;99.90;;;;;;5061843;28;20048;-73
2022/10/21 06:01:12;;;;;;;17.98;5.93;;;14.50;99.90;;;;;;5062065;28;20474;-73
2022/10/21 06:03:38;;;;;;;31.48;7.43;;;14.40;99.90;;;;;;5062998;28;20044;-74
2022/10/21 06:06:06;;;;;;;18.75;6.10;;;14.40;99.90;;;;;;5058848;28;20097;-74
2022/10/21 06:08:33;;;;;;;26.15;6.35;;;14.50;99.90;;;;;;5059489;28;20033;-73
2022/10/21 06:11:01;;;;;;;18.52;5.88;;;14.40;99.90;;;;;;5059717;28;20069;-73
2022/10/21 06:13:27;;;;;;;14.98;5.13;;;14.40;99.90;;;;;;5053573;28;20025;-74
2022/10/21 06:15:53;;;;;;;13.55;5.18;;;14.50;99.90;;;;;;5052799;28;20033;-73
2022/10/21 06:18:18;;;;;;;20.58;5.20;;;14.40;99.90;;;;;;5057577;28;20190;-73
2022/10/21 06:20:44;;;;;;;17.20;5.45;;;14.40;99.90;;;;;;5072982;28;20036;-74
2022/10/21 06:23:11;;;;;;;22.33;5.22;;;14.40;99.90;;;;;;5067416;28;20031;-73
2022/10/21 06:25:37;;;;;;;16.52;5.95;;;14.50;99.90;;;;;;5071778;28;20025;-74
2022/10/21 06:28:03;;;;;;;11.63;4.32;;;14.40;99.90;;;;;;5060359;28;20060;-74
2022/10/21 06:30:28;;;;;;;13.65;4.20;;;14.50;99.90;;;;;;5055170;28;20525;-74
2022/10/21 06:32:54;;;;;;;25.23;5.72;;;14.40;99.90;;;;;;5062339;28;20550;-73
2022/10/21 06:35:19;;;;;;;21.73;6.25;;;14.30;99.90;;;;;;5071670;28;20043;-74
2022/10/21 06:37:45;;;;;;;33.78;6.22;;;14.40;99.90;;;;;;5064790;28;20477;-73
2022/10/21 06:40:11;;;;;;;20.77;5.15;;;14.30;99.90;;;;;;5058684;28;20028;-74
2022/10/21 06:42:37;;;;;;;18.88;4.53;;;14.30;99.90;;;;;;5071322;28;20108;-73
2022/10/21 06:45:03;;;;;;;14.85;4.63;;;14.40;99.90;;;;;;5053324;28;20119;-74
2022/10/21 06:47:28;;;;;;;28.15;5.32;;;14.40;99.90;;;;;;5051916;28;20072;-74
2022/10/21 06:49:54;;;;;;;17.80;4.28;;;14.40;99.90;;;;;;5070514;28;20497;-75
2022/10/21 06:52:19;;;;;;;17.83;4.60;;;14.40;99.90;;;;;;5055624;28;20029;-75
2022/10/21 06:54:45;;;;;;;18.80;4.35;;;14.30;99.90;;;;;;5051931;28;20032;-75
2022/10/21 06:57:11;;;;;;;16.33;4.32;;;14.30;99.90;;;;;;5054389;28;20029;-75
2022/10/21 06:59:36;;;;;;;24.40;5.40;;;14.30;99.90;;;;;;5071788;28;20036;-74
2022/10/21 07:02:02;;;;;;;34.30;5.63;;;14.20;99.90;;;;;;5073049;28;20017;-74
2022/10/21 07:04:28;;;;;;;20.95;5.97;;;14.30;99.90;;;;;;5072272;28;20036;-75
2022/10/21 07:06:54;;;;;;;25.35;5.95;;;14.30;99.90;;;;;;5072024;28;20492;-74
2022/10/21 07:09:19;;;;;;;25.00;4.82;;;14.30;99.90;;;;;;5071570;28;20028;-74
2022/10/21 07:11:45;;;;;;;26.15;5.45;;;14.40;99.90;;;;;;5072611;28;20033;-74
2022/10/21 07:14:11;;;;;;;19.38;5.60;;;14.50;99.90;;;;;;5071370;28;20047;-75
2022/10/21 07:16:37;;;;;;;20.33;6.05;;;14.40;99.90;;;;;;5072786;28;20388;-74
2022/10/21 07:19:04;;;;;;;18.38;6.28;;;14.40;99.90;;;;;;5072469;28;20028;-74
2022/10/21 07:21:31;;;;;;;16.45;6.25;;;14.50;99.90;;;;;;5071944;28;20473;-74
2022/10/21 07:23:58;;;;;;;21.20;6.47;;;14.50;99.90;;;;;;5070250;28;20024;-74
2022/10/21 07:26:24;;;;;;;14.80;5.53;;;14.60;99.90;;;;;;5071859;28;20020;-74
2022/10/21 07:28:51;;;;;;;16.23;5.45;;;14.70;99.90;;;;;;5059586;28;20040;-74
2022/10/21 07:31:19;;;;;;;15.32;5.00;;;14.80;99.90;;;;;;5058492;28;20408;-74
2022/10/21 07:33:44;;;;;;;13.90;5.07;;;14.80;99.90;;;;;;5052754;28;20021;-73
2022/10/21 07:36:17;;;;;;;11.45;6.32;;;14.90;99.90;;;;;;5051745;28;20052;-74
2022/10/21 07:38:45;;;;;;;18.23;4.70;;;14.90;99.90;;;;;;5052765;28;20025;-74
2022/10/21 07:41:42;;;;;;;21.45;6.45;;;14.90;99.90;;;;;;5054401;28;20028;-74
2022/10/21 07:44:08;;;;;;;19.67;6.32;;;14.90;99.90;;;;;;5060555;28;20037;-74
2022/10/21 07:46:37;;;;;;;18.38;6.18;;;14.90;99.90;;;;;;5049746;28;20052;-74
2022/10/21 07:49:02;;;;;;;17.75;5.85;;;14.90;99.90;;;;;;5068443;28;20068;-74
2022/10/21 07:51:28;;;;;;;17.48;5.82;;;15.00;99.90;;;;;;5072181;28;20070;-74
2022/10/21 07:53:55;;;;;;;24.77;7.25;;;15.10;99.90;;;;;;5072613;28;20028;-74
2022/10/21 07:56:25;;;;;;;13.43;5.40;;;15.10;99.90;;;;;;5072065;28;20036;-74
2022/10/21 07:58:52;;;;;;;20.50;6.25;;;15.10;99.90;;;;;;5071153;28;20016;-74
2022/10/21 08:01:18;;;;;;;26.10;7.43;;;15.10;99.90;;;;;;5064231;28;20058;-74
2022/10/21 08:03:44;;;;;;;13.27;5.93;;;15.10;99.90;;;;;;5052196;28;20033;-74
2022/10/21 08:06:12;;;;;;;12.77;5.25;;;15.20;99.90;;;;;;5056625;28;20025;-75
2022/10/21 08:08:39;;;;;;;31.48;7.75;;;15.20;99.90;;;;;;5056414;28;20548;-74
2022/10/21 08:11:06;;;;;;;17.83;6.97;;;15.20;99.90;;;;;;5059119;28;20099;-73
2022/10/21 08:13:32;;;;;;;23.90;8.32;;;15.20;99.90;;;;;;5066496;28;20076;-73
2022/10/21 08:15:58;;;;;;;8.60;5.95;;;15.20;99.90;;;;;;5060099;28;20492;-74
2022/10/21 08:18:27;;;;;;;12.40;5.68;;;15.20;99.90;;;;;;5046015;28;20089;-73
2022/10/21 08:20:53;;;;;;;15.55;6.35;;;15.30;99.90;;;;;;5053178;28;20109;-76
2022/10/21 08:23:20;;;;;;;12.75;6.32;;;15.30;99.90;;;;;;5056656;28;20355;-74
2022/10/21 08:25:47;;;;;;;16.60;7.38;;;15.20;99.90;;;;;;5058346;28;20165;-74
2022/10/21 08:28:13;;;;;;;20.95;8.23;;;15.20;99.90;;;;;;5059575;28;20432;-74
2022/10/21 08:30:39;;;;;;;27.83;11.57;;;15.10;99.90;;;;;;5062241;28;20025;-75
2022/10/21 08:33:04;;;;;;;23.65;8.55;;;15.20;99.90;;;;;;5060322;28;20382;-73
2022/10/21 08:35:32;;;;;;;23.80;8.77;;;15.20;99.90;;;;;;5056887;28;20051;-74
2022/10/21 08:37:59;;;;;;;18.25;7.47;;;15.20;99.90;;;;;;5062450;28;20029;-73
2022/10/21 08:40:25;;;;;;;17.35;8.15;;;15.30;99.90;;;;;;5061693;28;20033;-74
2022/10/21 08:42:51;;;;;;;20.85;10.55;;;15.30;99.90;;;;;;5062896;28;20479;-74
2022/10/21 08:45:41;;;;;;;24.88;9.60;;;15.50;99.90;;;;;;5052185;28;20020;-73
2022/10/21 08:48:14;;;;;;;24.67;8.60;;;15.40;99.90;;;;;;5063236;28;20036;-73
2022/10/21 08:50:46;;;;;;;18.27;7.85;;;15.50;99.90;;;;;;5063828;28;20016;-74
2022/10/21 08:53:21;;;;;;;14.68;7.10;;;15.60;99.90;;;;;;5065676;28;20396;-74
2022/10/21 08:55:47;;;;;;;22.85;8.88;;;15.70;99.90;;;;;;5063166;28;20090;-74
2022/10/21 08:58:17;;;;;;;20.35;9.98;;;15.70;99.90;;;;;;5065223;28;20036;-74
2022/10/21 09:00:51;;;;;;;25.63;9.25;;;15.70;99.90;;;;;;5063759;28;20360;-74
2022/10/21 09:03:46;;;;;;;34.47;9.82;;;15.60;99.90;;;;;;5063498;28;20420;-74
2022/10/21 09:06:43;;;;;;;17.75;7.05;;;15.60;99.90;;;;;;5063391;28;20029;-74
2022/10/21 09:09:14;;;;;;;20.70;8.85;;;15.80;99.90;;;;;;5054821;28;20037;-73
2022/10/21 09:12:08;;;;;;;22.33;9.82;;;15.90;99.90;;;;;;5065858;28;20489;-73
2022/10/21 09:15:07;;;;;;;22.55;8.77;;;15.90;99.90;;;;;;5065850;28;20044;-74
2022/10/21 09:18:05;;;;;;;32.58;11.07;;;16.00;99.90;;;;;;5064142;28;20062;-75
2022/10/21 09:20:43;;;;;;;29.85;9.70;;;16.00;99.90;;;;;;5058712;28;20036;-75
2022/10/21 09:23:46;;;;;;;17.45;8.82;;;16.00;99.90;;;;;;5066106;28;20039;-73
2022/10/21 09:26:32;;;;;;;27.25;8.35;;;16.10;99.90;;;;;;5056726;28;20038;-75
2022/10/21 09:29:22;;;;;;;17.48;9.20;;;16.10;99.90;;;;;;5054718;28;20109;-76
2022/10/21 09:31:48;;;;;;;24.10;9.65;;;16.20;99.90;;;;;;5052899;28;20036;-75
2022/10/21 09:34:39;;;;;;;26.98;10.30;;;16.20;99.90;;;;;;5056668;28;20033;-75
2022/10/21 09:37:13;;;;;;;22.80;9.25;;;16.20;99.90;;;;;;5053581;28;20035;-76
2022/10/21 09:39:44;;;;;;;22.10;8.45;;;16.30;99.90;;;;;;5059631;28;20108;-76
2022/10/21 09:42:12;;;;;;;25.33;10.30;;;16.30;99.90;;;;;;5055283;28;20160;-77
2022/10/21 09:44:38;;;;;;;21.23;11.23;;;16.50;99.90;;;;;;5058151;28;20039;-73
2022/10/21 09:47:18;;;;;;;20.55;11.70;;;16.50;99.90;;;;;;5057755;28;20082;-73
2022/10/21 09:49:49;;;;;;;22.00;12.15;;;16.60;99.90;;;;;;5058781;28;20020;-73
2022/10/21 09:52:17;;;;;;;29.35;13.27;;;16.60;99.90;;;;;;5057001;28;20643;-74
2022/10/21 09:54:44;;;;;;;29.00;13.23;;;16.60;99.90;;;;;;5056765;28;20037;-74
2022/10/21 09:57:14;;;;;;;30.02;13.25;;;16.60;99.90;;;;;;5055761;28;20016;-73
2022/10/21 09:59:54;;;;;;;27.13;10.65;;;16.70;99.90;;;;;;5057073;28;20055;-74
2022/10/21 10:02:36;;;;;;;29.75;12.98;;;16.70;99.90;;;;;;5057356;28;20036;-73
2022/10/21 10:05:35;;;;;;;20.93;11.03;;;16.80;99.90;;;;;;5060557;28;20144;-73
2022/10/21 10:08:30;;;;;;;19.40;10.55;;;16.90;99.90;;;;;;5050816;28;20289;-73
2022/10/21 10:11:22;;;;;;;20.45;9.45;;;16.90;99.90;;;;;;5060491;28;20024;-73
2022/10/21 10:13:50;;;;;;;15.00;8.45;;;17.00;99.90;;;;;;5059360;28;20036;-73
2022/10/21 10:16:31;;;;;;;17.45;10.23;;;17.00;99.90;;;;;;5054429;28;20403;-73
2022/10/21 10:19:16;;;;;;;14.02;7.60;;;17.10;99.90;;;;;;5054273;28;20032;-74
2022/10/21 10:21:43;;;;;;;23.27;7.93;;;17.20;99.90;;;;;;5058526;28;20650;-73
2022/10/21 10:24:20;;;;;;;12.43;6.95;;;17.30;99.90;;;;;;5059474;28;20052;-74
2022/10/21 10:26:46;;;;;;;13.95;6.07;;;17.40;99.90;;;;;;5059502;28;20405;-73
2022/10/21 10:29:14;;;;;;;12.02;5.53;;;17.50;99.90;;;;;;5057578;28;20107;-74
2022/10/21 10:31:50;;;;;;;8.15;4.80;;;17.60;99.90;;;;;;5059155;28;20021;-73
2022/10/21 10:35:02;;;;;;;6.95;4.00;;;17.60;99.90;;;;;;5057241;28;20127;-73
2022/10/21 10:37:33;;;;;;;5.93;3.33;;;17.70;99.90;;;;;;5059935;28;20040;-72
2022/10/21 10:40:01;;;;;;;10.93;2.55;;;17.80;99.90;;;;;;5058928;28;20681;-74
2022/10/21 10:42:34;;;;;;;4.35;1.63;;;17.70;99.90;;;;;;5056775;28;20468;-74
2022/10/21 10:45:04;;;;;;;3.70;1.90;;;17.80;99.90;;;;;;5057620;28;20372;-73
2022/10/21 10:47:40;;;;;;;2.47;1.30;;;17.90;99.90;;;;;;5063090;28;20028;-72
2022/10/21 10:50:41;;;;;;;3.75;1.55;;;18.00;99.90;;;;;;5060211;28;20394;-74
2022/10/21 10:53:31;;;;;;;2.55;1.10;;;18.20;99.90;;;;;;5056911;28;20100;-73
2022/10/21 10:56:21;;;;;;;3.15;1.10;;;18.30;99.90;;;;;;5058949;28;20123;-73
2022/10/21 10:59:07;;;;;;;4.85;0.95;;;18.40;99.90;;;;;;5060388;28;20021;-73
2022/10/21 11:01:41;;;;;;;1.92;0.60;;;18.40;99.90;;;;;;5058307;28;20036;-72
2022/10/21 11:04:17;;;;;;;3.80;0.95;;;18.50;99.90;;;;;;5060396;28;20032;-73
2022/10/21 11:06:49;;;;;;;1.63;0.68;;;18.40;99.90;;;;;;5060462;28;20040;-73
2022/10/21 11:09:16;;;;;;;5.57;1.02;;;18.50;99.90;;;;;;5061984;28;20490;-72
2022/10/21 11:11:47;;;;;;;2.00;0.70;;;18.50;99.90;;;;;;5064200;28;20155;-72
2022/10/21 11:14:16;;;;;;;2.55;0.63;;;18.60;99.90;;;;;;5063659;28;20034;-73
2022/10/21 11:16:50;;;;;;;0.60;0.60;;;18.70;99.90;;;;;;5062619;28;20127;-73
2022/10/21 11:19:29;;;;;;;1.42;0.50;;;18.90;99.90;;;;;;5059125;28;20028;-73
2022/10/21 11:22:00;;;;;;;2.55;0.40;;;19.00;99.90;;;;;;5060400;28;20032;-73
2022/10/21 11:24:53;;;;;;;1.42;0.75;;;19.10;99.90;;;;;;5061471;28;20125;-73
2022/10/21 11:27:46;;;;;;;1.17;0.40;;;19.20;99.90;;;;;;5058843;28;20020;-73
2022/10/21 11:30:11;;;;;;;4.15;0.50;;;19.30;99.90;;;;;;5061082;28;20044;-73
2022/10/21 11:33:08;;;;;;;2.20;0.50;;;19.50;99.90;;;;;;5061968;28;20016;-73
2022/10/21 11:36:07;;;;;;;0.57;0.40;;;19.50;99.90;;;;;;5063178;28;20072;-73
2022/10/21 11:38:44;;;;;;;2.90;0.50;;;19.40;99.90;;;;;;5058473;28;20114;-73
2022/10/21 11:41:10;;;;;;;3.75;0.60;;;19.50;99.90;;;;;;5058999;28;20023;-73
2022/10/21 11:44:07;;;;;;;3.13;0.47;;;19.60;99.90;;;;;;5060546;28;20389;-73
2022/10/21 11:46:56;;;;;;;1.05;0.50;;;19.60;99.90;;;;;;5059041;28;20065;-72
2022/10/21 11:49:34;;;;;;;3.10;0.60;;;19.50;99.90;;;;;;5058307;28;20036;-73
2022/10/21 11:52:12;;;;;;;2.45;0.50;;;19.40;99.90;;;;;;5056570;28;20439;-72
2022/10/21 11:54:56;;;;;;;2.53;0.50;;;19.30;99.90;;;;;;5061626;28;20421;-72
2022/10/21 11:57:52;;;;;;;2.97;0.60;;;19.30;99.90;;;;;;5054292;28;20394;-72
2022/10/21 12:00:25;;;;;;;3.17;0.60;;;19.30;99.90;;;;;;5060283;28;20092;-73
2022/10/21 12:02:57;;;;;;;0.88;0.70;;;19.30;99.90;;;;;;5060956;28;20388;-72
2022/10/21 12:05:32;;;;;;;1.00;0.90;;;19.30;99.90;;;;;;5061251;28;20028;-72
2022/10/21 12:08:06;;;;;;;3.85;0.77;;;19.30;99.90;;;;;;5059271;28;20570;-72
2022/10/21 12:10:44;;;;;;;1.77;0.73;;;19.40;99.90;;;;;;5058657;28;20074;-72
2022/10/21 12:13:24;;;;;;;3.17;0.60;;;19.40;99.90;;;;;;5058798;28;20037;-72
2022/10/21 12:16:00;;;;;;;2.13;0.90;;;19.40;99.90;;;;;;5056582;28;20048;-71
2022/10/21 12:18:28;;;;;;;4.65;0.60;;;19.50;99.90;;;;;;5059408;28;20065;-72
2022/10/21 12:20:55;;;;;;;1.77;0.95;;;19.60;99.90;;;;;;5063966;28;20481;-72
2022/10/21 12:23:28;;;;;;;0.93;0.60;;;19.70;99.90;;;;;;5055969;28;20033;-72
2022/10/21 12:25:53;;;;;;;;;;;19.70;99.90;;;;;;5062474;28;20025;-71
2022/10/21 12:28:38;;;;;;;1.58;0.80;;;19.70;99.90;;;;;;5061511;28;20391;-72
2022/10/21 12:31:16;;;;;;;2.53;0.98;;;19.60;99.90;;;;;;5065918;28;20239;-72
2022/10/21 12:33:43;;;;;;;4.05;0.90;;;19.60;99.90;;;;;;5063308;28;20033;-72
2022/10/21 12:36:18;;;;;;;1.50;1.00;;;19.40;99.90;;;;;;5064522;28;20396;-72
2022/10/21 12:38:51;;;;;;;2.13;1.08;;;19.40;99.90;;;;;;5067858;28;20365;-72
2022/10/21 12:41:22;;;;;;;2.25;0.80;;;19.40;99.90;;;;;;5060908;28;20024;-72
2022/10/21 12:44:00;;;;;;;2.95;0.90;;;19.30;99.90;;;;;;5063106;28;20021;-72
2022/10/21 12:46:37;;;;;;;3.55;1.05;;;19.40;99.90;;;;;;5065937;28;20170;-73
2022/10/21 12:49:05;;;;;;;2.03;0.73;;;19.40;99.90;;;;;;5066541;28;20469;-76
2022/10/21 12:51:34;;;;;;;2.75;0.80;;;19.40;99.90;;;;;;5066762;28;20523;-74
2022/10/21 12:54:02;;;;;;;3.90;1.15;;;19.30;99.90;;;;;;5064149;28;20025;-73
2022/10/21 12:56:36;;;;;;;8.30;1.38;;;19.30;99.90;;;;;;5063491;28;20431;-72